createdAt,value
2023-05-05T00:01:48.768Z,99915.97
2023-05-05T00:03:54.397Z,99916.09
2023-05-05T00:05:59.886Z,99919.69
2023-05-05T00:08:04.714Z,99924.16
2023-05-05T00:10:09.515Z,99916.91
2023-05-05T00:12:14.183Z,99912.50
2023-05-05T00:14:18.470Z,99909.59
2023-05-05T00:16:23.656Z,99905.88
2023-05-05T00:18:28.891Z,99905.88
2023-05-05T00:20:33.584Z,99907.44
2023-05-05T00:22:42.132Z,99895.88
2023-05-05T00:24:49.353Z,99894.75
2023-05-05T00:26:53.075Z,99892.25
2023-05-05T00:28:57.384Z,99885.16
2023-05-05T00:31:01.873Z,99895.63
2023-05-05T00:33:06.142Z,99884.78
2023-05-05T00:35:10.441Z,99892.03
2023-05-05T00:37:14.984Z,99888.38
2023-05-05T00:39:20.057Z,99886.47
2023-05-05T00:41:23.955Z,99882.00
2023-05-05T00:43:28.728Z,99882.97
2023-05-05T00:45:34.132Z,99880.44
2023-05-05T00:47:39.043Z,99875.88
2023-05-05T00:49:42.866Z,99880.22
2023-05-05T00:51:46.583Z,99878.06
2023-05-05T00:53:51.127Z,99871.66
2023-05-05T00:55:57.652Z,99869.63
2023-05-05T00:58:02.945Z,99876.38
2023-05-05T01:00:10.536Z,99874.41
2023-05-05T01:02:15.388Z,99876.94
2023-05-05T01:04:20.325Z,99869.72
2023-05-05T01:06:44.090Z,99879.25
2023-05-05T01:09:02.315Z,99875.63
2023-05-05T01:11:15.995Z,99879.25
2023-05-05T01:13:31.675Z,99875.75
2023-05-05T01:15:39.666Z,99877.53
2023-05-05T01:17:47.284Z,99882.84
2023-05-05T01:20:08.227Z,99882.59
2023-05-05T01:22:16.572Z,99892.22
2023-05-05T01:24:58.387Z,99893.94
2023-05-05T01:27:21.967Z,99894.88
2023-05-05T01:29:59.553Z,99904.66
2023-05-05T01:32:10.113Z,99908.13
2023-05-05T01:34:18.433Z,99907.31
2023-05-05T01:36:28.731Z,99909.09
2023-05-05T01:38:40.791Z,99913.69
2023-05-05T01:40:50.232Z,99911.16
2023-05-05T01:42:56.979Z,99916.59
2023-05-05T01:45:05.449Z,99918.50
2023-05-05T01:47:13.552Z,99911.50
2023-05-05T01:49:18.580Z,99916.81
2023-05-05T01:51:24.899Z,99915.25
2023-05-05T01:53:31.317Z,99921.41
2023-05-05T01:55:36.947Z,99924.31
2023-05-05T01:57:44.337Z,99923.56
2023-05-05T01:59:48.516Z,99921.88
2023-05-05T02:01:54.189Z,99921.19
2023-05-05T02:04:03.000Z,99927.56
2023-05-05T02:06:11.655Z,99929.38
2023-05-05T02:08:17.367Z,99921.53
2023-05-05T02:10:21.062Z,99926.09
2023-05-05T02:12:24.908Z,99925.25
2023-05-05T02:14:31.175Z,99923.44
2023-05-05T02:16:37.699Z,99924.38
2023-05-05T02:18:43.559Z,99931.50
2023-05-05T02:20:49.539Z,99939.47
2023-05-05T02:22:54.022Z,99937.75
2023-05-05T02:24:58.982Z,99942.22
2023-05-05T02:27:06.026Z,99942.44
2023-05-05T02:29:14.612Z,99954.03
2023-05-05T02:31:24.689Z,99953.91
2023-05-05T02:33:33.127Z,99959.19
2023-05-05T02:35:42.372Z,99963.41
2023-05-05T02:37:56.606Z,99962.56
2023-05-05T02:40:05.044Z,99975.81
2023-05-05T02:42:12.189Z,99981.97
2023-05-05T02:44:19.047Z,99975.34
2023-05-05T02:46:23.504Z,99983.28
2023-05-05T02:48:29.780Z,99983.03
2023-05-05T02:50:37.305Z,99983.75
2023-05-05T02:52:58.564Z,99978.44
2023-05-05T02:55:04.337Z,99979.31
2023-05-05T02:57:17.851Z,99976.06
2023-05-05T02:59:36.756Z,99985.94
2023-05-05T03:01:57.742Z,99970.25
2023-05-05T03:04:08.821Z,99981.09
2023-05-05T03:06:21.079Z,99981.09
2023-05-05T03:08:35.197Z,99977.38
2023-05-05T03:10:45.720Z,99986.41
2023-05-05T03:12:53.791Z,99987.34
2023-05-05T03:15:04.361Z,99988.09
2023-05-05T03:17:08.632Z,99987.97
2023-05-05T03:19:19.295Z,99992.41
2023-05-05T03:21:25.539Z,99991.44
2023-05-05T03:23:30.977Z,99991.44
2023-05-05T03:25:46.354Z,99990.63
2023-05-05T03:28:11.450Z,99986.53
2023-05-05T03:30:15.511Z,99985.78
2023-05-05T03:32:25.450Z,99989.28
2023-05-05T03:34:31.308Z,99988.56
2023-05-05T03:36:36.982Z,99989.50
2023-05-05T03:38:42.464Z,99996.38
2023-05-05T03:40:46.401Z,99997.94
2023-05-05T03:42:54.491Z,100008.41
2023-05-05T03:44:58.538Z,99998.69
2023-05-05T03:47:01.928Z,100000.34
2023-05-05T03:49:10.078Z,100007.34
2023-05-05T03:51:15.789Z,100004.56
2023-05-05T03:53:19.614Z,100003.50
2023-05-05T03:55:27.368Z,100008.59
2023-05-05T03:57:31.214Z,100011.09
2023-05-05T03:59:34.737Z,100003.88
2023-05-05T04:01:38.382Z,100002.78
2023-05-05T04:03:42.070Z,100011.50
2023-05-05T04:05:45.755Z,100004.41
2023-05-05T04:07:49.511Z,100007.03
2023-05-05T04:09:53.140Z,99997.16
2023-05-05T04:11:58.379Z,100013.91
2023-05-05T04:14:01.719Z,100008.63
2023-05-05T04:16:06.713Z,100003.19
2023-05-05T04:18:10.328Z,100004.03
2023-05-05T04:20:14.197Z,99999.59
2023-05-05T04:22:17.849Z,100001.38
2023-05-05T04:24:24.887Z,100002.13
2023-05-05T04:26:30.736Z,99999.47
2023-05-05T04:28:35.873Z,99994.16
2023-05-05T04:30:40.309Z,99999.47
2023-05-05T04:32:44.707Z,100001.25
2023-05-05T04:34:48.494Z,100008.38
2023-05-05T04:36:52.918Z,100003.31
2023-05-05T04:38:57.452Z,100012.22
2023-05-05T04:41:01.190Z,100023.78
2023-05-05T04:43:07.300Z,100015.94
2023-05-05T04:45:13.692Z,100015.31
2023-05-05T04:47:19.566Z,100016.28
2023-05-05T04:49:23.582Z,100035.53
2023-05-05T04:51:27.783Z,100029.28
2023-05-05T04:53:32.553Z,100026.63
2023-05-05T04:55:36.935Z,100038.84
2023-05-05T04:57:41.769Z,100042.09
2023-05-05T04:59:46.286Z,100044.50
2023-05-05T05:01:51.591Z,100048.13
2023-05-05T05:03:55.686Z,100051.50
2023-05-05T05:06:00.832Z,100044.25
2023-05-05T05:08:05.894Z,100062.81
2023-05-05T05:10:11.588Z,100065.34
2023-05-05T05:12:17.027Z,100058.25
2023-05-05T05:14:20.716Z,100060.78
2023-05-05T05:16:26.655Z,100064.38
2023-05-05T05:18:32.055Z,100064.25
2023-05-05T05:20:35.821Z,100059.78
2023-05-05T05:22:39.738Z,100065.00
2023-05-05T05:24:48.275Z,100061.38
2023-05-05T05:26:52.781Z,100073.53
2023-05-05T05:28:56.956Z,100066.31
2023-05-05T05:31:02.632Z,100078.50
2023-05-05T05:33:07.301Z,100083.69
2023-05-05T05:35:12.876Z,100085.25
2023-05-05T05:37:16.773Z,100094.66
2023-05-05T05:39:20.594Z,100089.09
2023-05-05T05:41:24.800Z,100095.84
2023-05-05T05:43:28.488Z,100088.59
2023-05-05T05:45:32.156Z,100102.97
2023-05-05T05:47:36.361Z,100103.81
2023-05-05T05:49:40.502Z,100099.13
2023-05-05T05:51:45.458Z,100099.81
2023-05-05T05:53:49.439Z,100106.56
2023-05-05T05:55:53.386Z,100105.75
2023-05-05T05:57:57.814Z,100116.34
2023-05-05T06:00:02.471Z,100111.03
2023-05-05T06:02:17.774Z,100119.84
2023-05-05T06:04:23.456Z,100121.41
2023-05-05T06:06:28.297Z,100122.97
2023-05-05T06:08:33.626Z,100122.72
2023-05-05T06:10:42.318Z,100124.06
2023-05-05T06:12:51.894Z,100131.53
2023-05-05T06:14:55.759Z,100123.81
2023-05-05T06:16:59.358Z,100131.63
2023-05-05T06:19:05.575Z,100136.59
2023-05-05T06:21:09.221Z,100138.63
2023-05-05T06:23:13.090Z,100132.97
2023-05-05T06:25:22.869Z,100136.06
2023-05-05T06:27:27.704Z,100133.91
2023-05-05T06:29:31.310Z,100144.03
2023-05-05T06:31:35.008Z,100145.47
2023-05-05T06:33:38.703Z,100146.19
2023-05-05T06:35:42.363Z,100148.69
2023-05-05T06:37:45.926Z,100159.31
2023-05-05T06:39:49.559Z,100158.13
2023-05-05T06:41:54.608Z,100155.00
2023-05-05T06:43:57.775Z,100160.31
2023-05-05T06:46:01.616Z,100163.16
2023-05-05T06:48:05.656Z,100152.50
2023-05-05T06:50:10.666Z,100158.25
2023-05-05T06:52:15.250Z,100158.97
2023-05-05T06:54:19.853Z,100165.28
2023-05-05T06:56:24.121Z,100164.00
2023-05-05T06:58:29.463Z,100167.97
2023-05-05T07:00:35.361Z,100171.16
2023-05-05T07:02:40.403Z,100179.72
2023-05-05T07:04:46.372Z,100183.50
2023-05-05T07:06:52.117Z,100178.53
2023-05-05T07:08:56.901Z,100186.97
2023-05-05T07:11:01.337Z,100181.09
2023-05-05T07:13:06.245Z,100184.56
2023-05-05T07:15:26.783Z,100183.69
2023-05-05T07:17:33.659Z,100181.06
2023-05-05T07:19:37.373Z,100176.56
2023-05-05T07:21:41.086Z,100187.13
2023-05-05T07:23:48.096Z,100186.59
2023-05-05T07:25:52.253Z,100187.16
2023-05-05T07:27:56.754Z,100178.72
2023-05-05T07:30:00.651Z,100189.78
2023-05-05T07:32:06.085Z,100198.91
2023-05-05T07:34:09.797Z,100192.41
2023-05-05T07:36:13.561Z,100196.84
2023-05-05T07:38:17.229Z,100190.56
2023-05-05T07:40:21.038Z,100187.94
2023-05-05T07:42:24.782Z,100193.25
2023-05-05T07:44:28.589Z,100206.25
2023-05-05T07:46:32.368Z,100204.47
2023-05-05T07:48:37.666Z,100209.25
2023-05-05T07:50:41.439Z,100215.94
2023-05-05T07:52:51.530Z,100219.84
2023-05-05T07:55:00.119Z,100216.56
2023-05-05T07:57:03.726Z,100215.06
2023-05-05T07:59:07.493Z,100216.66
2023-05-05T08:01:13.040Z,100229.78
2023-05-05T08:03:16.729Z,100224.63
2023-05-05T08:05:21.871Z,100227.28
2023-05-05T08:07:25.792Z,100232.28
2023-05-05T08:09:29.587Z,100223.53
2023-05-05T08:11:33.151Z,100235.03
2023-05-05T08:13:37.026Z,100230.06
2023-05-05T08:15:40.891Z,100232.75
2023-05-05T08:17:49.295Z,100239.19
2023-05-05T08:19:54.141Z,100244.84
2023-05-05T08:22:01.103Z,100236.41
2023-05-05T08:24:05.275Z,100244.81
2023-05-05T08:26:09.462Z,100249.50
2023-05-05T08:28:13.249Z,100238.63
2023-05-05T08:30:21.080Z,100250.88
2023-05-05T08:32:24.678Z,100250.06
2023-05-05T08:34:28.437Z,100252.13
2023-05-05T08:36:32.804Z,100263.31
2023-05-05T08:38:38.016Z,100273.91
2023-05-05T08:40:42.092Z,100271.44
2023-05-05T08:42:46.596Z,100265.50
2023-05-05T08:44:50.185Z,100276.03
2023-05-05T08:46:54.567Z,100277.47
2023-05-05T08:48:59.521Z,100267.50
2023-05-05T08:51:05.942Z,100269.00
2023-05-05T08:53:11.654Z,100267.16
2023-05-05T08:55:24.612Z,100268.97
2023-05-05T08:57:37.968Z,100270.19
2023-05-05T08:59:42.804Z,100266.69
2023-05-05T09:01:46.300Z,100275.28
2023-05-05T09:03:49.840Z,100272.06
2023-05-05T09:05:53.738Z,100267.03
2023-05-05T09:07:57.338Z,100265.63
2023-05-05T09:10:01.443Z,100268.16
2023-05-05T09:12:06.904Z,100274.34
2023-05-05T09:14:10.891Z,100272.22
2023-05-05T09:16:14.424Z,100272.06
2023-05-05T09:18:17.999Z,100271.50
2023-05-05T09:20:21.687Z,100267.56
2023-05-05T09:22:34.925Z,100264.03
2023-05-05T09:24:38.703Z,100271.13
2023-05-05T09:26:45.323Z,100270.34
2023-05-05T09:28:54.624Z,100267.97
2023-05-05T09:31:13.105Z,100261.19
2023-05-05T09:33:30.498Z,100267.00
2023-05-05T09:35:50.006Z,100277.69
2023-05-05T09:37:53.486Z,100267.00
2023-05-05T09:39:57.580Z,100274.34
2023-05-05T09:42:01.469Z,100277.09
2023-05-05T09:44:07.080Z,100270.22
2023-05-05T09:46:10.886Z,100278.00
2023-05-05T09:48:27.847Z,100277.31
2023-05-05T09:50:32.777Z,100275.69
2023-05-05T09:52:38.394Z,100276.28
2023-05-05T09:54:42.686Z,100272.41
2023-05-05T09:56:46.562Z,100281.22
2023-05-05T09:58:50.054Z,100271.75
2023-05-05T10:00:55.314Z,100283.00
2023-05-05T10:03:04.352Z,100272.31
2023-05-05T10:05:10.604Z,100276.78
2023-05-05T10:07:24.550Z,100289.25
2023-05-05T10:09:29.131Z,100278.56
2023-05-05T10:11:33.889Z,100270.84
2023-05-05T10:13:37.843Z,100275.88
2023-05-05T10:15:45.652Z,100284.63
2023-05-05T10:18:05.993Z,100282.13
2023-05-05T10:20:14.461Z,100285.50
2023-05-05T10:22:20.709Z,100287.69
2023-05-05T10:24:34.762Z,100284.16
2023-05-05T10:26:43.936Z,100287.50
2023-05-05T10:28:52.272Z,100284.31
2023-05-05T10:30:59.835Z,100283.81
2023-05-05T10:33:30.965Z,100281.63
2023-05-05T10:35:38.736Z,100273.56
2023-05-05T10:37:43.232Z,100273.06
2023-05-05T10:39:47.975Z,100274.88
2023-05-05T10:41:52.405Z,100279.91
2023-05-05T10:43:58.149Z,100274.41
2023-05-05T10:46:03.139Z,100274.41
2023-05-05T10:48:14.116Z,100276.91
2023-05-05T10:50:27.923Z,100274.03
2023-05-05T10:52:39.070Z,100295.72
2023-05-05T10:54:48.795Z,100288.84
2023-05-05T10:56:53.122Z,100285.94
2023-05-05T10:59:00.113Z,100287.22
2023-05-05T11:01:05.386Z,100284.66
2023-05-05T11:03:25.985Z,100281.47
2023-05-05T11:05:29.681Z,100276.53
2023-05-05T11:07:34.746Z,100289.16
2023-05-05T11:09:55.308Z,100280.91
2023-05-05T11:12:06.434Z,100279.28
2023-05-05T11:14:22.677Z,100287.06
2023-05-05T11:16:47.631Z,100287.13
2023-05-05T11:18:52.915Z,100286.84
2023-05-05T11:21:16.981Z,100288.97
2023-05-05T11:23:24.029Z,100293.50
2023-05-05T11:25:48.612Z,100279.91
2023-05-05T11:28:08.558Z,100283.25
2023-05-05T11:30:13.646Z,100291.13
2023-05-05T11:32:17.503Z,100292.28
2023-05-05T11:34:29.884Z,100280.66
2023-05-05T11:36:42.161Z,100286.41
2023-05-05T11:39:01.378Z,100285.25
2023-05-05T11:41:14.184Z,100290.75
2023-05-05T11:43:20.848Z,100285.53
2023-05-05T11:45:25.527Z,100285.69
2023-05-05T11:47:33.254Z,100281.63
2023-05-05T11:49:39.731Z,100272.97
2023-05-05T11:51:44.734Z,100276.50
2023-05-05T11:53:50.296Z,100277.78
2023-05-05T11:56:08.173Z,100276.84
2023-05-05T11:58:19.973Z,100272.19
2023-05-05T12:00:34.208Z,100277.06
2023-05-05T12:02:38.307Z,100277.56
2023-05-05T12:04:43.726Z,100279.53
2023-05-05T12:06:49.197Z,100285.72
2023-05-05T12:08:52.830Z,100285.00
2023-05-05T12:11:04.350Z,100278.97
2023-05-05T12:13:19.543Z,100281.72
2023-05-05T12:15:30.264Z,100284.72
2023-05-05T12:17:42.914Z,100295.63
2023-05-05T12:19:51.735Z,100283.28
2023-05-05T12:21:55.574Z,100279.47
2023-05-05T12:23:59.199Z,100280.47
2023-05-05T12:26:03.284Z,100285.84
2023-05-05T12:28:08.740Z,100291.19
2023-05-05T12:30:17.613Z,100289.16
2023-05-05T12:32:23.413Z,100286.97
2023-05-05T12:34:27.794Z,100289.09
2023-05-05T12:36:34.230Z,100290.44
2023-05-05T12:38:37.916Z,100287.38
2023-05-05T12:40:48.292Z,100287.72
2023-05-05T12:42:53.835Z,100282.81
2023-05-05T12:44:57.966Z,100282.97
2023-05-05T12:47:01.956Z,100281.31
2023-05-05T12:49:07.737Z,100283.84
2023-05-05T12:51:18.628Z,100270.47
2023-05-05T12:53:24.967Z,100284.41
2023-05-05T12:55:38.210Z,100278.78
2023-05-05T12:58:04.792Z,100275.75
2023-05-05T13:00:17.002Z,100276.41
2023-05-05T13:02:21.751Z,100275.25
2023-05-05T13:04:27.030Z,100277.31
2023-05-05T13:06:30.634Z,100280.34
2023-05-05T13:08:45.274Z,100277.69
2023-05-05T13:10:59.065Z,100276.84
2023-05-05T13:13:02.763Z,100274.69
2023-05-05T13:15:08.172Z,100282.25
2023-05-05T13:17:12.610Z,100263.31
2023-05-05T13:19:16.540Z,100269.34
2023-05-05T13:21:20.115Z,100265.50
2023-05-05T13:23:25.795Z,100265.34
2023-05-05T13:25:31.026Z,100264.34
2023-05-05T13:27:34.654Z,100264.50
2023-05-05T13:29:38.614Z,100271.22
2023-05-05T13:31:42.402Z,100261.28
2023-05-05T13:33:46.180Z,100271.38
2023-05-05T13:35:49.743Z,100274.25
2023-05-05T13:37:53.571Z,100262.31
2023-05-05T13:39:59.513Z,100270.88
2023-05-05T13:42:04.908Z,100265.88
2023-05-05T13:44:08.552Z,100267.56
2023-05-05T13:48:20.187Z,100271.59
2023-05-05T13:50:24.274Z,100263.50
2023-05-05T13:52:29.407Z,100264.84
2023-05-05T13:54:34.115Z,100260.47
2023-05-05T13:56:37.763Z,100264.97
2023-05-05T13:58:42.738Z,100265.16
2023-05-05T14:00:46.314Z,100262.47
2023-05-05T14:02:50.100Z,100260.47
2023-05-05T14:04:53.731Z,100254.75
2023-05-05T14:06:58.366Z,100258.94
2023-05-05T14:09:01.945Z,100267.69
2023-05-05T14:11:05.703Z,100259.78
2023-05-05T14:13:09.327Z,100256.81
2023-05-05T14:15:14.540Z,100257.47
2023-05-05T14:17:18.228Z,100266.22
2023-05-05T14:19:21.685Z,100262.00
2023-05-05T14:21:25.408Z,100256.13
2023-05-05T14:23:28.943Z,100255.75
2023-05-05T14:25:32.666Z,100250.03
2023-05-05T14:27:36.377Z,100250.91
2023-05-05T14:29:40.141Z,100246.19
2023-05-05T14:31:45.207Z,100243.00
2023-05-05T14:33:48.767Z,100241.34
2023-05-05T14:35:52.528Z,100242.34
2023-05-05T14:37:57.033Z,100246.34
2023-05-05T14:40:03.587Z,100244.19
2023-05-05T14:42:09.708Z,100247.34
2023-05-05T14:44:13.566Z,100245.53
2023-05-05T14:46:19.069Z,100242.00
2023-05-05T14:48:25.031Z,100235.28
2023-05-05T14:50:29.922Z,100235.78
2023-05-05T14:52:33.824Z,100240.50
2023-05-05T14:54:37.548Z,100243.50
2023-05-05T14:56:41.210Z,100246.19
2023-05-05T14:58:44.944Z,100250.38
2023-05-05T15:00:48.698Z,100243.00
2023-05-05T15:02:52.393Z,100242.00
2023-05-05T15:04:57.743Z,100242.69
2023-05-05T15:07:01.740Z,100243.84
2023-05-05T15:09:05.491Z,100239.81
2023-05-05T15:11:08.990Z,100234.63
2023-05-05T15:13:12.746Z,100233.28
2023-05-05T15:15:16.391Z,100241.31
2023-05-05T15:17:20.121Z,100241.97
2023-05-05T15:19:23.647Z,100245.00
2023-05-05T15:21:28.869Z,100248.22
2023-05-05T15:23:32.484Z,100239.16
2023-05-05T15:25:36.691Z,100241.00
2023-05-05T15:27:40.487Z,100237.47
2023-05-05T15:29:44.107Z,100241.69
2023-05-05T15:31:47.712Z,100243.34
2023-05-05T15:33:51.504Z,100240.00
2023-05-05T15:35:55.129Z,100239.81
2023-05-05T15:38:00.241Z,100246.88
2023-05-05T15:40:03.935Z,100241.84
2023-05-05T15:42:07.650Z,100249.72
2023-05-05T15:44:13.789Z,100244.00
2023-05-05T15:46:17.459Z,100250.22
2023-05-05T15:48:21.287Z,100245.19
2023-05-05T15:50:25.201Z,100241.34
2023-05-05T15:52:28.844Z,100245.34
2023-05-05T15:54:34.256Z,100252.06
2023-05-05T15:56:37.899Z,100243.31
2023-05-05T15:58:41.647Z,100251.72
2023-05-05T16:00:45.247Z,100240.47
2023-05-05T16:02:49.009Z,100241.66
2023-05-05T16:04:53.070Z,100239.97
2023-05-05T16:06:58.087Z,100241.66
2023-05-05T16:09:01.919Z,100248.50
2023-05-05T16:11:07.056Z,100250.19
2023-05-05T16:13:10.690Z,100245.00
2023-05-05T16:15:14.521Z,100248.84
2023-05-05T16:17:18.508Z,100249.84
2023-05-05T16:19:23.563Z,100258.56
2023-05-05T16:21:27.717Z,100253.69
2023-05-05T16:23:31.315Z,100258.69
2023-05-05T16:25:34.896Z,100260.00
2023-05-05T16:27:40.005Z,100259.94
2023-05-05T16:29:43.874Z,100260.56
2023-05-05T16:31:53.516Z,100253.03
2023-05-05T16:33:57.484Z,100258.56
2023-05-05T16:36:01.024Z,100248.13
2023-05-05T16:38:04.644Z,100242.09
2023-05-05T16:40:09.721Z,100256.50
2023-05-05T16:42:13.526Z,100253.81
2023-05-05T16:44:18.731Z,100254.81
2023-05-05T16:46:22.383Z,100251.13
2023-05-05T16:48:25.976Z,100257.19
2023-05-05T16:50:29.781Z,100258.84
2023-05-05T16:52:33.415Z,100256.88
2023-05-05T16:54:37.284Z,100252.84
2023-05-05T16:56:41.688Z,100262.25
2023-05-05T16:58:45.318Z,100249.50
2023-05-05T17:00:50.409Z,100266.66
2023-05-05T17:02:54.201Z,100267.19
2023-05-05T17:04:57.861Z,100264.03
2023-05-05T17:07:01.479Z,100274.97
2023-05-05T17:09:06.443Z,100275.44
2023-05-05T17:11:11.829Z,100272.75
2023-05-05T17:13:16.411Z,100274.44
2023-05-05T17:15:20.206Z,100287.88
2023-05-05T17:17:25.247Z,100285.69
2023-05-05T17:19:28.928Z,100281.47
2023-05-05T17:21:33.008Z,100283.47
2023-05-05T17:23:36.688Z,100277.59
2023-05-05T17:25:40.201Z,100289.75
2023-05-05T17:27:43.836Z,100282.22
2023-05-05T17:29:47.623Z,100288.06
2023-05-05T17:31:51.837Z,100285.19
2023-05-05T17:33:56.931Z,100280.63
2023-05-05T17:36:00.545Z,100300.03
2023-05-05T17:38:04.293Z,100294.16
2023-05-05T17:40:09.105Z,100299.84
2023-05-05T17:42:12.836Z,100301.00
2023-05-05T17:44:16.623Z,100310.00
2023-05-05T17:46:20.549Z,100311.16
2023-05-05T17:48:24.554Z,100306.66
2023-05-05T17:50:29.724Z,100314.56
2023-05-05T17:52:33.491Z,100310.00
2023-05-05T17:54:37.656Z,100314.56
2023-05-05T17:56:41.250Z,100315.38
2023-05-05T17:58:44.887Z,100307.34
2023-05-05T18:00:48.404Z,100313.41
2023-05-05T18:02:52.142Z,100319.75
2023-05-05T18:04:55.727Z,100320.75
2023-05-05T18:07:00.804Z,100322.88
2023-05-05T18:09:04.819Z,100331.09
2023-05-05T18:11:08.684Z,100336.75
2023-05-05T18:13:12.441Z,100331.03
2023-05-05T18:15:16.126Z,100326.00
2023-05-05T18:17:19.829Z,100333.66
2023-05-05T18:19:25.297Z,100328.28
2023-05-05T18:21:30.011Z,100334.63
2023-05-05T18:23:35.150Z,100337.63
2023-05-05T18:25:38.846Z,100346.16
2023-05-05T18:27:44.066Z,100341.56
2023-05-05T18:29:47.764Z,100344.19
2023-05-05T18:31:54.762Z,100342.81
2023-05-05T18:33:58.526Z,100345.09
2023-05-05T18:36:03.493Z,100348.78
2023-05-05T18:38:07.124Z,100352.44
2023-05-05T18:40:13.204Z,100356.13
2023-05-05T18:42:17.100Z,100363.31
2023-05-05T18:44:21.110Z,100362.75
2023-05-05T18:46:24.949Z,100360.50
2023-05-05T18:48:29.095Z,100363.63
2023-05-05T18:50:33.502Z,100362.53
2023-05-05T18:52:37.127Z,100366.28
2023-05-05T18:54:41.177Z,100365.28
2023-05-05T18:56:46.237Z,100373.31
2023-05-05T18:58:50.243Z,100369.41
2023-05-05T19:00:53.898Z,100367.34
2023-05-05T19:02:58.045Z,100367.28
2023-05-05T19:05:01.701Z,100374.25
2023-05-05T19:07:05.571Z,100375.31
2023-05-05T19:09:09.460Z,100379.03
2023-05-05T19:11:15.192Z,100372.22
2023-05-05T19:13:20.421Z,100372.81
2023-05-05T19:15:24.413Z,100367.22
2023-05-05T19:17:28.177Z,100371.50
2023-05-05T19:19:31.822Z,100367.91
2023-05-05T19:21:35.443Z,100378.63
2023-05-05T19:23:39.000Z,100373.31
2023-05-05T19:25:42.713Z,100374.19
2023-05-05T19:27:46.321Z,100379.59
2023-05-05T19:29:52.904Z,100378.81
2023-05-05T19:31:56.717Z,100387.66
2023-05-05T19:34:02.614Z,100391.19
2023-05-05T19:36:06.873Z,100389.25
2023-05-05T19:38:11.282Z,100389.13
2023-05-05T19:40:15.270Z,100393.19
2023-05-05T19:42:19.380Z,100388.44
2023-05-05T19:44:24.022Z,100389.00
2023-05-05T19:46:29.431Z,100390.41
2023-05-05T19:48:33.059Z,100394.63
2023-05-05T19:50:36.919Z,100389.59
2023-05-05T19:52:42.076Z,100395.19
2023-05-05T19:54:45.909Z,100394.78
2023-05-05T19:56:49.634Z,100393.38
2023-05-05T19:58:58.008Z,100397.31
2023-05-05T20:01:01.654Z,100403.06
2023-05-05T20:03:09.006Z,100407.84
2023-05-05T20:05:14.101Z,100410.09
2023-05-05T20:07:18.122Z,100414.84
2023-05-05T20:09:21.999Z,100421.72
2023-05-05T20:11:27.456Z,100417.78
2023-05-05T20:13:31.280Z,100423.38
2023-05-05T20:15:34.898Z,100428.28
2023-05-05T20:17:38.806Z,100426.13
2023-05-05T20:19:44.276Z,100422.03
2023-05-05T20:21:48.069Z,100429.59
2023-05-05T20:23:52.178Z,100429.88
2023-05-05T20:25:56.214Z,100427.50
2023-05-05T20:28:00.061Z,100437.03
2023-05-05T20:30:04.339Z,100429.41
2023-05-05T20:32:08.090Z,100431.50
2023-05-05T20:34:11.633Z,100435.44
2023-05-05T20:36:17.246Z,100439.31
2023-05-05T20:38:21.221Z,100433.41
2023-05-05T20:40:24.945Z,100440.97
2023-05-05T20:42:29.944Z,100437.84
2023-05-05T20:44:33.771Z,100454.94
2023-05-05T20:46:37.852Z,100447.22
2023-05-05T20:48:42.891Z,100456.31
2023-05-05T20:50:47.018Z,100451.25
2023-05-05T20:52:52.109Z,100448.72
2023-05-05T20:54:56.012Z,100446.34
2023-05-05T20:56:59.712Z,100442.25
2023-05-05T20:59:04.223Z,100451.19
2023-05-05T21:01:08.000Z,100443.47
2023-05-05T21:03:11.784Z,100448.06
2023-05-05T21:05:15.592Z,100448.34
2023-05-05T21:07:19.349Z,100445.94
2023-05-05T21:09:25.379Z,100452.50
2023-05-05T21:11:28.982Z,100451.91
2023-05-05T21:13:32.546Z,100450.34
2023-05-05T21:15:37.856Z,100450.75
2023-05-05T21:17:41.558Z,100456.31
2023-05-05T21:19:45.370Z,100451.25
2023-05-05T21:21:49.077Z,100455.88
2023-05-05T21:23:55.303Z,100449.00
2023-05-05T21:26:00.600Z,100456.25
2023-05-05T21:28:04.192Z,100456.50
2023-05-05T21:30:10.997Z,100454.81
2023-05-05T21:32:15.088Z,100451.59
2023-05-05T21:34:18.856Z,100449.75
2023-05-05T21:36:22.523Z,100456.78
2023-05-05T21:38:26.361Z,100454.81
2023-05-05T21:40:30.257Z,100459.16
2023-05-05T21:42:35.382Z,100452.00
2023-05-05T21:44:38.968Z,100457.47
2023-05-05T21:46:42.694Z,100457.75
2023-05-05T21:48:48.953Z,100459.63
2023-05-05T21:50:52.862Z,100460.75
2023-05-05T21:52:56.632Z,100458.31
2023-05-05T21:55:00.500Z,100455.09
2023-05-05T21:57:04.310Z,100462.34
2023-05-05T21:59:09.321Z,100459.13
2023-05-05T22:01:13.764Z,100466.38
2023-05-05T22:03:17.541Z,100462.00
2023-05-05T22:05:21.920Z,100464.09
2023-05-05T22:07:26.082Z,100462.25
2023-05-05T22:09:29.709Z,100463.22
2023-05-05T22:11:33.194Z,100466.84
2023-05-05T22:13:37.664Z,100466.03
2023-05-05T22:15:46.813Z,100468.69
2023-05-05T22:17:51.223Z,100464.44
2023-05-05T22:19:55.039Z,100468.94
2023-05-05T22:21:59.639Z,100466.28
2023-05-05T22:24:03.400Z,100466.28
2023-05-05T22:26:07.153Z,100470.63
2023-05-05T22:28:10.860Z,100465.41
2023-05-05T22:30:15.247Z,100469.91
2023-05-05T22:32:20.832Z,100463.75
2023-05-05T22:34:25.941Z,100473.78
2023-05-05T22:36:29.329Z,100473.31
2023-05-05T22:38:32.748Z,100470.44
2023-05-05T22:40:36.161Z,100469.72
2023-05-05T22:42:39.491Z,100463.53
2023-05-05T22:44:42.784Z,100470.81
2023-05-05T22:46:46.263Z,100473.59
2023-05-05T22:48:52.513Z,100470.19
2023-05-05T22:50:57.202Z,100468.75
2023-05-05T22:53:00.474Z,100465.88
2023-05-05T22:55:04.034Z,100468.66
2023-05-05T22:57:07.344Z,100476.50
2023-05-05T22:59:10.705Z,100475.66
2023-05-05T23:01:14.651Z,100470.47
2023-05-05T23:03:18.075Z,100481.34
2023-05-05T23:05:23.011Z,100475.31
2023-05-05T23:07:26.456Z,100478.59
2023-05-05T23:09:29.775Z,100476.88
2023-05-05T23:11:33.241Z,100480.38
2023-05-05T23:13:36.558Z,100488.22
2023-05-05T23:15:41.112Z,100479.41
2023-05-05T23:17:44.500Z,100483.16
2023-05-05T23:19:48.978Z,100486.91
2023-05-05T23:21:53.944Z,100481.72
2023-05-05T23:23:57.089Z,100479.53
2023-05-05T23:26:00.445Z,100470.47
2023-05-05T23:28:03.726Z,100469.78
2023-05-05T23:30:08.372Z,100469.78
2023-05-05T23:32:11.847Z,100473.38
2023-05-05T23:34:15.225Z,100476.31
2023-05-05T23:36:18.551Z,100474.59
2023-05-05T23:38:23.329Z,100480.03
2023-05-05T23:40:27.081Z,100482.69
2023-05-05T23:42:30.482Z,100482.69
2023-05-05T23:44:33.903Z,100481.72
2023-05-05T23:46:37.226Z,100483.28
2023-05-05T23:48:40.545Z,100490.19
2023-05-05T23:50:44.560Z,100491.03
2023-05-05T23:52:48.064Z,100489.59
2023-05-05T23:54:53.012Z,100488.13
2023-05-05T23:56:56.991Z,100484.75
2023-05-05T23:59:00.239Z,100484.75
